Time;durP1;ratioP1;P1;durP2;ratioP2;P2;SDS_P1;SDS_P2;PMS_P1;PMS_P2;Temp;Humidity;BMP_temperature;BMP_pressure;BME280_temperature;BME280_humidity;BME280_pressure;Samples;Min_cycle;Max_cycle;Signal;HPM_P1;HPM_P2
2021/03/04 00:02:19;;;;;;;146.95;78.85;;;6.30;99.90;;;;;;5068801;28;20386;-46
2021/03/04 00:04:45;;;;;;;144.00;77.60;;;6.30;99.90;;;;;;5068240;28;20016;-51
2021/03/04 00:07:10;;;;;;;148.98;79.70;;;6.20;99.90;;;;;;5068324;28;20028;-45
2021/03/04 00:09:36;;;;;;;154.32;81.57;;;6.20;99.90;;;;;;5067076;28;20026;-49
2021/03/04 00:12:02;;;;;;;159.07;81.38;;;6.20;99.90;;;;;;5068655;28;20141;-48
2021/03/04 00:14:28;;;;;;;152.82;83.53;;;6.20;99.90;;;;;;5051633;28;20371;-45
2021/03/04 00:16:54;;;;;;;159.45;86.10;;;6.10;99.90;;;;;;5047703;28;20114;-46
2021/03/04 00:19:19;;;;;;;165.65;85.90;;;6.10;99.90;;;;;;5048024;28;20048;-45
2021/03/04 00:21:45;;;;;;;165.82;89.28;;;6.10;99.90;;;;;;5048501;28;20146;-44
2021/03/04 00:24:10;;;;;;;162.65;87.10;;;6.00;99.90;;;;;;5048372;28;20040;-47
2021/03/04 00:26:36;;;;;;;168.23;90.72;;;6.00;99.90;;;;;;5048135;28;20033;-44
2021/03/04 00:29:02;;;;;;;167.10;88.22;;;6.00;99.90;;;;;;5048189;28;20395;-46
2021/03/04 00:31:29;;;;;;;168.38;87.65;;;6.00;99.90;;;;;;5046875;28;20036;-45
2021/03/04 00:33:55;;;;;;;158.02;86.65;;;6.00;99.90;;;;;;5048100;28;20029;-45
2021/03/04 00:36:20;;;;;;;165.90;86.88;;;6.00;99.90;;;;;;5047902;28;20032;-48
2021/03/04 00:38:46;;;;;;;162.85;84.00;;;5.90;99.90;;;;;;5048113;28;20069;-46
2021/03/04 00:41:12;;;;;;;170.40;87.93;;;5.90;99.90;;;;;;5048121;28;20113;-48
2021/03/04 00:43:37;;;;;;;170.27;87.55;;;5.90;99.90;;;;;;5047041;28;20020;-46
2021/03/04 00:46:03;;;;;;;164.00;86.90;;;5.80;99.90;;;;;;5047377;28;20509;-47
2021/03/04 00:48:28;;;;;;;160.25;84.50;;;5.70;99.90;;;;;;5048043;28;20035;-46
2021/03/04 00:50:54;;;;;;;167.80;88.30;;;5.70;99.90;;;;;;5047938;28;20426;-45
2021/03/04 00:53:20;;;;;;;167.63;86.97;;;5.60;99.90;;;;;;5048058;28;20063;-46
2021/03/04 00:55:46;;;;;;;175.25;91.07;;;5.60;99.90;;;;;;5047525;28;20037;-51
2021/03/04 00:58:11;;;;;;;178.32;89.55;;;5.60;99.90;;;;;;5048163;28;20052;-45
2021/03/04 01:00:37;;;;;;;171.23;86.53;;;5.60;99.90;;;;;;5047818;28;20025;-46
2021/03/04 01:03:02;;;;;;;153.05;83.97;;;5.70;99.90;;;;;;5046752;28;20032;-45
2021/03/04 01:05:28;;;;;;;153.10;81.82;;;5.70;99.90;;;;;;5046989;28;20116;-46
2021/03/04 01:07:53;;;;;;;156.10;82.90;;;5.70;99.90;;;;;;5047941;28;20025;-46
2021/03/04 01:10:25;;;;;;;157.77;81.03;;;5.70;99.90;;;;;;5047694;28;20394;-46
2021/03/04 01:12:50;;;;;;;147.82;76.95;;;5.60;99.90;;;;;;5047803;28;20017;-46
2021/03/04 01:15:18;;;;;;;154.10;78.43;;;5.60;99.90;;;;;;5047241;28;20033;-47
2021/03/04 01:17:44;;;;;;;152.05;76.75;;;5.60;99.90;;;;;;5048058;28;20059;-46
2021/03/04 01:20:12;;;;;;;142.27;77.72;;;5.50;99.90;;;;;;5047715;28;20065;-45
2021/03/04 01:22:38;;;;;;;155.98;77.82;;;5.50;99.90;;;;;;5049618;28;20095;-46
2021/03/04 01:25:04;;;;;;;148.77;76.15;;;5.50;99.90;;;;;;5050808;28;20032;-46
2021/03/04 01:27:30;;;;;;;152.93;77.13;;;5.30;99.90;;;;;;5051523;28;20025;-46
2021/03/04 01:29:56;;;;;;;144.45;76.55;;;5.30;99.90;;;;;;5051218;28;20048;-46
2021/03/04 01:32:23;;;;;;;145.88;73.28;;;5.30;99.90;;;;;;5056504;28;20024;-46
2021/03/04 01:34:50;;;;;;;149.98;75.03;;;5.20;99.90;;;;;;5059091;28;20021;-47
2021/03/04 01:37:16;;;;;;;155.23;74.40;;;5.10;99.90;;;;;;5059517;28;20059;-46
2021/03/04 01:39:43;;;;;;;152.75;75.32;;;5.10;99.90;;;;;;5059574;28;20530;-47
2021/03/04 01:42:08;;;;;;;149.75;72.97;;;5.10;99.90;;;;;;5062843;28;20017;-46
2021/03/04 01:44:34;;;;;;;150.73;73.20;;;5.10;99.90;;;;;;5058086;28;20628;-48
2021/03/04 01:47:00;;;;;;;148.43;74.38;;;5.00;99.90;;;;;;5059591;28;20040;-47
2021/03/04 01:49:26;;;;;;;149.48;74.13;;;5.00;99.90;;;;;;5059920;28;20028;-47
2021/03/04 01:51:52;;;;;;;145.88;72.00;;;5.00;99.90;;;;;;5059444;28;20029;-46
2021/03/04 01:54:18;;;;;;;150.20;71.85;;;5.10;99.90;;;;;;5060879;28;20121;-45
2021/03/04 01:56:45;;;;;;;147.35;73.35;;;5.10;99.90;;;;;;5059235;28;20478;-48
2021/03/04 01:59:11;;;;;;;145.30;68.75;;;5.10;99.90;;;;;;5059444;28;20040;-45
2021/03/04 02:01:37;;;;;;;140.52;71.18;;;5.10;99.90;;;;;;5060904;28;20524;-46
2021/03/04 02:04:04;;;;;;;133.65;66.70;;;5.10;99.90;;;;;;5060532;28;20032;-51
2021/03/04 02:06:41;;;;;;;131.88;64.60;;;5.20;99.90;;;;;;5058277;28;20025;-46
2021/03/04 02:09:09;;;;;;;138.20;65.38;;;5.10;99.90;;;;;;5059500;28;20085;-45
2021/03/04 02:11:43;;;;;;;136.23;65.45;;;5.10;99.90;;;;;;5059605;28;20017;-47
2021/03/04 02:14:13;;;;;;;137.95;63.53;;;5.10;99.90;;;;;;5058961;28;20056;-47
2021/03/04 02:17:10;;;;;;;139.65;64.18;;;5.10;99.90;;;;;;5059484;28;20498;-46
2021/03/04 02:19:57;;;;;;;141.10;61.17;;;5.00;99.90;;;;;;5049783;28;20512;-45
2021/03/04 02:22:41;;;;;;;141.45;61.80;;;5.00;99.90;;;;;;5060670;28;20029;-48
2021/03/04 02:25:43;;;;;;;137.30;61.03;;;5.00;99.90;;;;;;5060372;28;20548;-46
2021/03/04 02:28:09;;;;;;;134.63;61.88;;;4.90;99.90;;;;;;5042225;28;20033;-45
2021/03/04 02:30:37;;;;;;;129.13;58.20;;;4.90;99.90;;;;;;5060263;28;20198;-49
2021/03/04 02:33:14;;;;;;;137.10;63.60;;;4.80;99.90;;;;;;5059651;28;20022;-46
2021/03/04 02:35:41;;;;;;;128.85;58.55;;;4.70;99.90;;;;;;5058542;28;20518;-46
2021/03/04 02:38:10;;;;;;;131.68;60.88;;;4.60;99.90;;;;;;5064281;28;20027;-47
2021/03/04 02:40:38;;;;;;;144.75;59.78;;;4.60;99.90;;;;;;5068725;28;20028;-46
2021/03/04 02:43:16;;;;;;;141.82;64.60;;;4.60;99.90;;;;;;5070272;28;20051;-45
2021/03/04 02:45:43;;;;;;;141.57;64.13;;;4.60;99.90;;;;;;5052556;28;20024;-48
2021/03/04 02:48:14;;;;;;;145.65;62.60;;;4.60;99.90;;;;;;5049834;28;20387;-49
2021/03/04 02:50:41;;;;;;;136.38;61.08;;;4.60;99.90;;;;;;5049535;28;20040;-47
2021/03/04 02:53:08;;;;;;;140.00;60.72;;;4.60;99.90;;;;;;5050020;28;20025;-45
2021/03/04 02:55:35;;;;;;;140.15;61.83;;;4.60;99.90;;;;;;5049558;28;20025;-46
2021/03/04 02:58:01;;;;;;;142.32;62.97;;;4.60;99.90;;;;;;5049851;28;20106;-45
2021/03/04 03:00:29;;;;;;;140.35;61.88;;;4.50;99.90;;;;;;5048717;28;20045;-46
2021/03/04 03:02:56;;;;;;;138.90;62.38;;;4.60;99.90;;;;;;5049586;28;20021;-45
2021/03/04 03:05:24;;;;;;;147.20;64.07;;;4.50;99.90;;;;;;5048805;28;20075;-45
2021/03/04 03:07:50;;;;;;;133.32;59.72;;;4.50;99.90;;;;;;5049472;28;20056;-46
2021/03/04 03:10:18;;;;;;;147.10;60.42;;;4.50;99.90;;;;;;5049432;28;20029;-46
2021/03/04 03:12:46;;;;;;;146.30;61.03;;;4.50;99.90;;;;;;5049454;28;20028;-46
2021/03/04 03:15:14;;;;;;;142.55;61.95;;;4.50;99.90;;;;;;5048751;28;20033;-45
2021/03/04 03:17:40;;;;;;;143.05;62.35;;;4.50;99.90;;;;;;5047947;28;20116;-46
2021/03/04 03:20:08;;;;;;;139.40;61.17;;;4.40;99.90;;;;;;5047684;28;20291;-46
2021/03/04 03:22:34;;;;;;;155.45;62.33;;;4.50;99.90;;;;;;5047617;28;20052;-48
2021/03/04 03:25:00;;;;;;;140.65;61.78;;;4.50;99.90;;;;;;5048692;28;20104;-46
2021/03/04 03:27:27;;;;;;;142.07;63.40;;;4.50;99.90;;;;;;5049165;28;20104;-46
2021/03/04 03:29:53;;;;;;;147.10;63.53;;;4.50;99.90;;;;;;5049085;28;20029;-47
2021/03/04 03:32:19;;;;;;;145.13;62.33;;;4.50;99.90;;;;;;5049398;28;20410;-46
2021/03/04 03:34:45;;;;;;;153.73;62.95;;;4.50;99.90;;;;;;5048886;28;20032;-46
2021/03/04 03:37:11;;;;;;;143.98;61.72;;;4.40;99.90;;;;;;5048374;28;20032;-47
2021/03/04 03:39:38;;;;;;;143.23;60.05;;;4.50;99.90;;;;;;5049016;28;20037;-46
2021/03/04 03:42:06;;;;;;;144.45;61.13;;;4.40;99.90;;;;;;5048824;28;20017;-47
2021/03/04 03:44:32;;;;;;;135.88;55.50;;;4.40;99.90;;;;;;5048192;28;20021;-47
2021/03/04 03:46:58;;;;;;;137.27;55.97;;;4.40;99.90;;;;;;5047466;28;20032;-45
2021/03/04 03:49:25;;;;;;;138.68;55.08;;;4.30;99.90;;;;;;5048428;28;20060;-48
2021/03/04 03:51:51;;;;;;;136.00;57.10;;;4.30;99.90;;;;;;5048712;28;20083;-46
2021/03/04 03:54:17;;;;;;;136.55;53.30;;;4.20;99.90;;;;;;5048706;28;20116;-45
2021/03/04 03:56:44;;;;;;;138.93;54.80;;;4.10;99.90;;;;;;5048001;28;20123;-45
2021/03/04 03:59:12;;;;;;;144.23;59.38;;;4.00;99.90;;;;;;5047329;28;20037;-47
2021/03/04 04:01:38;;;;;;;144.30;57.50;;;4.00;99.90;;;;;;5047256;28;20017;-46
2021/03/04 04:04:04;;;;;;;142.07;53.47;;;4.00;99.90;;;;;;5047162;28;20067;-45
2021/03/04 04:06:31;;;;;;;135.85;55.38;;;3.90;99.90;;;;;;5046733;28;20031;-46
2021/03/04 04:08:58;;;;;;;137.32;53.38;;;3.90;99.90;;;;;;5048361;28;20079;-45
2021/03/04 04:11:25;;;;;;;143.57;53.53;;;3.90;99.90;;;;;;5048272;28;20075;-45
2021/03/04 04:13:50;;;;;;;148.13;55.85;;;3.80;99.90;;;;;;5047928;28;20075;-48
2021/03/04 04:16:17;;;;;;;157.88;58.33;;;3.80;99.90;;;;;;5047781;28;20060;-46
2021/03/04 04:18:44;;;;;;;162.32;59.92;;;3.80;99.90;;;;;;5048106;28;20032;-46
2021/03/04 04:21:10;;;;;;;151.32;55.40;;;3.80;99.90;;;;;;5048011;28;20025;-45
2021/03/04 04:23:37;;;;;;;168.98;58.05;;;3.70;99.90;;;;;;5048247;28;20049;-45
2021/03/04 04:26:03;;;;;;;145.32;56.40;;;3.70;99.90;;;;;;5047590;28;20017;-45
2021/03/04 04:28:28;;;;;;;143.00;53.85;;;3.70;99.90;;;;;;5046846;28;20025;-45
2021/03/04 04:30:54;;;;;;;145.77;56.40;;;3.70;99.90;;;;;;5048309;28;20299;-47
2021/03/04 04:33:19;;;;;;;136.93;52.58;;;3.70;99.90;;;;;;5048407;28;20083;-45
2021/03/04 04:35:45;;;;;;;127.07;51.50;;;3.70;99.90;;;;;;5047419;28;20176;-45
2021/03/04 04:38:11;;;;;;;133.80;51.42;;;3.70;99.90;;;;;;5046323;28;20060;-46
2021/03/04 04:40:37;;;;;;;137.55;52.95;;;3.70;99.90;;;;;;5048355;28;20420;-45
2021/03/04 04:43:03;;;;;;;146.30;53.33;;;3.70;99.90;;;;;;5046831;28;20108;-46
2021/03/04 04:45:28;;;;;;;140.85;52.42;;;3.70;99.90;;;;;;5047781;28;20036;-46
2021/03/04 04:47:53;;;;;;;149.60;55.15;;;3.70;99.90;;;;;;5048045;28;20108;-45
2021/03/04 04:50:19;;;;;;;134.50;51.83;;;3.80;99.90;;;;;;5046584;28;20025;-45
2021/03/04 04:52:44;;;;;;;143.63;53.63;;;3.80;99.90;;;;;;5048034;28;20272;-46
2021/03/04 04:55:10;;;;;;;144.70;54.42;;;3.70;99.90;;;;;;5047377;28;20032;-47
2021/03/04 04:57:36;;;;;;;156.13;57.45;;;3.70;99.90;;;;;;5050138;28;20051;-47
2021/03/04 05:00:07;;;;;;;151.93;55.75;;;3.70;99.90;;;;;;5052260;28;20078;-46
2021/03/04 05:02:32;;;;;;;157.00;56.90;;;3.80;99.90;;;;;;5051822;28;20471;-45
2021/03/04 05:04:58;;;;;;;161.60;57.25;;;3.70;99.90;;;;;;5051164;28;20035;-45
2021/03/04 05:07:24;;;;;;;161.30;59.67;;;3.80;99.90;;;;;;5051905;28;20475;-46
2021/03/04 05:09:49;;;;;;;159.77;57.97;;;3.80;99.90;;;;;;5050393;28;20559;-47
2021/03/04 05:12:15;;;;;;;163.57;57.72;;;3.80;99.90;;;;;;5051886;28;20037;-46
2021/03/04 05:14:41;;;;;;;167.80;61.78;;;3.80;99.90;;;;;;5051756;28;20047;-47
2021/03/04 05:17:06;;;;;;;170.65;59.30;;;3.80;99.90;;;;;;5051531;28;20025;-46
2021/03/04 05:19:32;;;;;;;160.55;59.42;;;3.80;99.90;;;;;;5051618;28;20112;-45
2021/03/04 05:21:58;;;;;;;162.65;60.92;;;3.80;99.90;;;;;;5050424;28;20120;-47
2021/03/04 05:24:24;;;;;;;164.00;58.20;;;3.80;99.90;;;;;;5051578;28;20436;-46
2021/03/04 05:26:49;;;;;;;161.57;56.83;;;3.70;99.90;;;;;;5050893;28;20033;-46
2021/03/04 05:29:15;;;;;;;164.07;57.45;;;3.70;99.90;;;;;;5049872;28;20086;-48
2021/03/04 05:31:40;;;;;;;158.75;58.10;;;3.70;99.90;;;;;;5050243;28;20387;-45
2021/03/04 05:34:06;;;;;;;163.95;56.67;;;3.70;99.90;;;;;;5051310;28;20501;-49
2021/03/04 05:36:32;;;;;;;154.40;55.88;;;3.70;99.90;;;;;;5050427;28;20044;-47
2021/03/04 05:38:57;;;;;;;170.82;58.63;;;3.70;99.90;;;;;;5050987;28;20063;-46
2021/03/04 05:41:23;;;;;;;172.13;59.22;;;3.60;99.90;;;;;;5051295;28;20028;-46
2021/03/04 05:43:50;;;;;;;177.98;60.05;;;3.60;99.90;;;;;;5051235;28;20025;-45
2021/03/04 05:46:19;;;;;;;164.80;56.08;;;3.60;99.90;;;;;;5050483;28;20164;-46
2021/03/04 05:48:48;;;;;;;160.85;57.67;;;3.60;99.90;;;;;;5051071;28;20169;-45
2021/03/04 05:51:18;;;;;;;161.88;56.00;;;3.60;99.90;;;;;;5049547;28;20025;-46
2021/03/04 05:53:49;;;;;;;154.55;53.05;;;3.60;99.90;;;;;;5050939;28;20367;-46
2021/03/04 05:56:16;;;;;;;168.85;56.00;;;3.60;99.90;;;;;;5050320;28;20033;-47
2021/03/04 05:58:44;;;;;;;151.55;55.20;;;3.60;99.90;;;;;;5050697;28;20417;-46
2021/03/04 06:01:11;;;;;;;160.13;53.58;;;3.60;99.90;;;;;;5050804;28;20386;-45
2021/03/04 06:03:37;;;;;;;155.13;50.95;;;3.60;99.90;;;;;;5050648;28;20032;-45
2021/03/04 06:06:03;;;;;;;138.55;47.50;;;3.60;99.90;;;;;;5049800;28;20621;-46
2021/03/04 06:08:28;;;;;;;143.75;49.35;;;3.60;99.90;;;;;;5050187;28;20044;-45
2021/03/04 06:10:54;;;;;;;141.73;50.72;;;3.60;99.90;;;;;;5050627;28;20029;-45
2021/03/04 06:13:19;;;;;;;146.43;49.65;;;3.60;99.90;;;;;;5050318;28;20025;-46
2021/03/04 06:15:45;;;;;;;141.48;48.33;;;3.50;99.90;;;;;;5050311;28;20103;-46
2021/03/04 06:18:11;;;;;;;152.57;50.80;;;3.50;99.90;;;;;;5052885;28;20064;-45
2021/03/04 06:20:41;;;;;;;135.07;49.15;;;3.50;99.90;;;;;;5057303;28;20053;-48
2021/03/04 06:23:06;;;;;;;159.80;53.87;;;3.50;99.90;;;;;;5060414;28;20025;-47
2021/03/04 06:25:32;;;;;;;160.18;53.38;;;3.50;99.90;;;;;;5059894;28;20367;-45
2021/03/04 06:27:58;;;;;;;152.23;52.40;;;3.50;99.90;;;;;;5060645;28;20033;-45
2021/03/04 06:30:24;;;;;;;146.00;48.60;;;3.40;99.90;;;;;;5058079;28;20029;-46
2021/03/04 06:33:01;;;;;;;154.63;52.75;;;3.40;99.90;;;;;;5051560;28;20059;-46
2021/03/04 06:35:31;;;;;;;158.20;51.08;;;3.50;99.90;;;;;;5050598;28;20100;-45
2021/03/04 06:37:57;;;;;;;158.13;54.33;;;3.50;99.90;;;;;;5051580;28;20025;-47
2021/03/04 06:40:30;;;;;;;167.82;51.50;;;3.40;99.90;;;;;;5049929;28;20025;-47
2021/03/04 06:42:56;;;;;;;158.15;48.42;;;3.40;99.90;;;;;;5065238;28;20078;-46
2021/03/04 06:45:37;;;;;;;159.52;52.42;;;3.40;99.90;;;;;;5061009;28;20009;-49
2021/03/04 06:48:07;;;;;;;166.38;51.78;;;3.40;99.90;;;;;;5065432;28;20103;-45
2021/03/04 06:50:33;;;;;;;123.95;38.40;;;3.40;99.90;;;;;;5074946;28;20029;-44
2021/03/04 06:53:10;;;;;;;164.80;52.28;;;3.40;99.90;;;;;;5061132;28;20087;-48
2021/03/04 06:56:01;;;;;;;189.68;55.53;;;3.40;99.90;;;;;;5063978;28;20017;-44
2021/03/04 06:58:43;;;;;;;186.95;56.33;;;3.40;99.90;;;;;;5018518;28;20085;-44
2021/03/04 07:01:16;;;;;;;166.60;53.15;;;3.50;99.90;;;;;;5039287;28;20072;-44
2021/03/04 07:03:53;;;;;;;187.57;52.20;;;3.50;99.90;;;;;;5060744;28;20029;-44
2021/03/04 07:06:20;;;;;;;172.00;51.80;;;3.50;99.90;;;;;;5059448;28;20043;-45
2021/03/04 07:08:48;;;;;;;159.85;48.03;;;3.40;99.90;;;;;;5058409;28;20028;-46
2021/03/04 07:11:16;;;;;;;171.23;53.10;;;3.40;99.90;;;;;;5059880;28;20398;-45
2021/03/04 07:13:42;;;;;;;169.10;49.05;;;3.40;99.90;;;;;;5058837;28;20020;-43
2021/03/04 07:16:21;;;;;;;155.38;49.72;;;3.40;99.90;;;;;;5061133;28;20028;-44
2021/03/04 07:18:53;;;;;;;153.80;48.20;;;3.40;99.90;;;;;;5059708;28;20020;-44
2021/03/04 07:21:19;;;;;;;170.65;51.63;;;3.40;99.90;;;;;;5060251;28;20051;-44
2021/03/04 07:23:47;;;;;;;164.27;49.80;;;3.30;99.90;;;;;;5059229;28;20021;-47
2021/03/04 07:26:14;;;;;;;161.68;46.08;;;3.30;99.90;;;;;;5056495;28;20510;-45
2021/03/04 07:28:43;;;;;;;152.05;44.90;;;3.30;99.90;;;;;;5059511;28;20507;-47
2021/03/04 07:31:10;;;;;;;177.77;50.83;;;3.30;99.90;;;;;;5058238;28;20395;-45
2021/03/04 07:33:47;;;;;;;167.18;49.10;;;3.30;99.90;;;;;;5059657;28;20207;-45
2021/03/04 07:36:14;;;;;;;160.55;46.97;;;3.30;99.90;;;;;;5058324;28;20147;-45
2021/03/04 07:38:40;;;;;;;151.73;44.42;;;3.40;99.90;;;;;;5058380;28;20671;-44
2021/03/04 07:41:13;;;;;;;159.20;44.80;;;3.40;99.90;;;;;;5057511;28;20096;-46
2021/03/04 07:43:56;;;;;;;123.47;40.58;;;3.40;99.90;;;;;;5058998;28;20052;-49
2021/03/04 07:46:32;;;;;;;128.70;40.25;;;3.40;99.90;;;;;;5058223;28;20028;-44
2021/03/04 07:49:03;;;;;;;120.20;40.33;;;3.40;99.90;;;;;;5058480;28;20028;-44
2021/03/04 07:51:39;;;;;;;121.18;40.70;;;3.40;99.90;;;;;;5056469;28;20032;-44
2021/03/04 07:54:05;;;;;;;116.28;39.03;;;3.40;99.90;;;;;;5056777;28;20131;-45
2021/03/04 07:56:31;;;;;;;118.13;38.00;;;3.40;99.90;;;;;;5056820;28;20056;-44
2021/03/04 07:59:12;;;;;;;122.45;38.33;;;3.30;99.90;;;;;;5057301;28;20025;-44
2021/03/04 08:01:40;;;;;;;110.05;35.58;;;3.40;99.90;;;;;;5061075;28;20039;-45
2021/03/04 08:04:06;;;;;;;115.55;35.88;;;3.40;99.90;;;;;;5070192;28;20053;-44
2021/03/04 08:06:42;;;;;;;111.13;35.75;;;3.30;99.90;;;;;;5069007;28;20854;-43
2021/03/04 08:09:08;;;;;;;94.22;34.25;;;3.30;99.90;;;;;;5070135;28;20036;-44
2021/03/04 08:11:34;;;;;;;87.97;31.50;;;3.30;99.90;;;;;;5061524;28;20047;-45
2021/03/04 08:14:13;;;;;;;102.13;32.05;;;3.40;99.90;;;;;;5049459;28;20565;-46
2021/03/04 08:16:39;;;;;;;95.50;33.35;;;3.40;99.90;;;;;;5057477;28;20029;-46
2021/03/04 08:19:04;;;;;;;83.47;31.38;;;3.50;99.90;;;;;;5066720;28;20025;-46
2021/03/04 08:21:31;;;;;;;90.93;33.80;;;3.50;99.90;;;;;;5057507;28;20108;-42
2021/03/04 08:23:56;;;;;;;83.22;30.58;;;3.60;99.90;;;;;;5058787;28;20020;-43
2021/03/04 08:26:25;;;;;;;89.25;32.28;;;3.60;99.90;;;;;;5065497;28;20036;-44
2021/03/04 08:29:03;;;;;;;88.13;30.60;;;3.60;99.90;;;;;;5052068;28;20032;-47
2021/03/04 08:31:29;;;;;;;74.00;29.25;;;3.70;99.90;;;;;;5051109;28;20033;-45
2021/03/04 08:33:56;;;;;;;76.93;28.77;;;3.70;99.90;;;;;;5053594;28;20031;-48
2021/03/04 08:36:21;;;;;;;77.53;28.42;;;3.70;99.90;;;;;;5068114;28;20033;-46
2021/03/04 08:38:47;;;;;;;71.95;28.00;;;3.70;99.90;;;;;;5073639;28;20020;-45
2021/03/04 08:41:19;;;;;;;69.45;27.52;;;3.70;99.90;;;;;;5072229;28;20054;-45
2021/03/04 08:43:45;;;;;;;67.97;24.95;;;3.60;99.90;;;;;;5067471;28;20025;-46
2021/03/04 08:46:10;;;;;;;67.22;26.70;;;3.60;99.90;;;;;;5053032;28;20441;-47
2021/03/04 08:48:43;;;;;;;74.30;27.17;;;3.60;99.90;;;;;;5053429;28;20401;-45
2021/03/04 08:51:09;;;;;;;74.47;26.95;;;3.60;99.90;;;;;;5053500;28;20025;-47
2021/03/04 08:53:35;;;;;;;65.47;25.65;;;3.60;99.90;;;;;;5058024;28;20119;-45
2021/03/04 08:56:03;;;;;;;67.18;26.02;;;3.60;99.90;;;;;;5052655;28;20044;-46
2021/03/04 08:58:31;;;;;;;73.95;28.13;;;3.60;99.90;;;;;;5053497;28;20115;-44
2021/03/04 09:00:57;;;;;;;78.05;26.58;;;3.60;99.90;;;;;;5051138;28;20371;-45
2021/03/04 09:03:24;;;;;;;63.13;25.55;;;3.60;99.90;;;;;;5051847;28;20127;-45
2021/03/04 09:05:51;;;;;;;71.60;26.70;;;3.60;99.90;;;;;;5051024;28;20025;-44
2021/03/04 09:08:17;;;;;;;75.00;26.95;;;3.60;99.90;;;;;;5051698;28;20101;-46
2021/03/04 09:10:50;;;;;;;73.30;26.23;;;3.60;99.90;;;;;;5051853;28;20371;-45
2021/03/04 09:13:34;;;;;;;63.67;27.02;;;3.60;99.90;;;;;;5051735;28;20518;-44
2021/03/04 09:16:07;;;;;;;69.55;26.80;;;3.60;99.90;;;;;;5051234;28;20074;-45
2021/03/04 09:18:42;;;;;;;65.65;25.73;;;3.60;99.90;;;;;;5051670;28;20159;-45
2021/03/04 09:21:12;;;;;;;63.70;24.52;;;3.70;99.90;;;;;;5051656;28;20059;-43
2021/03/04 09:23:38;;;;;;;59.80;23.70;;;3.70;99.90;;;;;;5051615;28;20054;-45
2021/03/04 09:26:04;;;;;;;68.15;28.48;;;3.70;99.90;;;;;;5050870;28;20021;-45
2021/03/04 09:28:30;;;;;;;69.75;27.15;;;3.70;99.90;;;;;;5051785;28;20154;-43
2021/03/04 09:30:56;;;;;;;62.53;26.60;;;3.70;99.90;;;;;;5049972;28;20455;-45
2021/03/04 09:33:23;;;;;;;68.47;28.10;;;3.70;99.90;;;;;;5051284;28;20115;-45
2021/03/04 09:36:07;;;;;;;62.15;25.27;;;3.80;99.90;;;;;;5050488;28;20679;-45
2021/03/04 09:38:38;;;;;;;66.07;25.35;;;3.70;99.90;;;;;;5049618;28;20021;-47
2021/03/04 09:41:16;;;;;;;60.95;23.52;;;3.80;99.90;;;;;;5051788;28;20044;-45
2021/03/04 09:43:50;;;;;;;69.75;27.33;;;3.70;99.90;;;;;;5050929;28;20028;-44
2021/03/04 09:46:29;;;;;;;53.10;23.17;;;3.80;99.90;;;;;;5050879;28;20021;-44
2021/03/04 09:49:10;;;;;;;62.38;23.40;;;3.80;99.90;;;;;;5051017;28;20040;-44
2021/03/04 09:51:38;;;;;;;58.20;23.80;;;3.80;99.90;;;;;;5049465;28;20506;-44
2021/03/04 09:54:06;;;;;;;57.97;24.60;;;3.80;99.90;;;;;;5050870;28;20036;-44
2021/03/04 09:56:32;;;;;;;65.35;25.55;;;3.90;99.90;;;;;;5050327;28;20279;-44
2021/03/04 09:58:58;;;;;;;60.67;24.23;;;3.90;99.90;;;;;;5049549;28;20497;-44
2021/03/04 10:01:33;;;;;;;65.40;24.20;;;3.90;99.90;;;;;;5050753;28;20028;-43
2021/03/04 10:04:04;;;;;;;63.03;23.65;;;3.90;99.90;;;;;;5051188;28;20022;-44
2021/03/04 10:06:37;;;;;;;57.47;24.40;;;3.80;99.90;;;;;;5049948;28;20112;-45
2021/03/04 10:09:07;;;;;;;54.25;23.05;;;3.90;99.90;;;;;;5049457;28;20033;-44
2021/03/04 10:11:37;;;;;;;63.77;22.00;;;3.90;99.90;;;;;;5050706;28;20276;-46
2021/03/04 10:14:11;;;;;;;50.15;22.58;;;3.90;99.90;;;;;;5050680;28;20483;-44
2021/03/04 10:16:37;;;;;;;51.45;21.55;;;4.00;99.90;;;;;;5049938;28;20487;-44
2021/03/04 10:19:03;;;;;;;53.42;21.30;;;4.00;99.90;;;;;;5050601;28;20028;-45
2021/03/04 10:21:29;;;;;;;49.22;22.15;;;4.00;99.90;;;;;;5050215;28;20376;-46
2021/03/04 10:23:54;;;;;;;56.47;22.80;;;4.00;99.90;;;;;;5050765;28;20525;-44
2021/03/04 10:26:20;;;;;;;58.53;23.08;;;4.00;99.90;;;;;;5049808;28;20029;-45
2021/03/04 10:28:45;;;;;;;52.00;22.13;;;4.00;99.90;;;;;;5050350;28;20118;-44
2021/03/04 10:31:11;;;;;;;58.00;23.15;;;4.00;99.90;;;;;;5050347;28;20049;-46
2021/03/04 10:33:37;;;;;;;55.75;21.73;;;4.00;99.90;;;;;;5050482;28;20040;-45
2021/03/04 10:36:02;;;;;;;52.83;21.25;;;4.00;99.90;;;;;;5048078;28;20040;-45
2021/03/04 10:38:28;;;;;;;56.00;22.63;;;4.10;99.90;;;;;;5050048;28;20688;-45
2021/03/04 10:40:53;;;;;;;50.25;21.98;;;4.10;99.90;;;;;;5050171;28;20443;-46
2021/03/04 10:43:19;;;;;;;54.38;22.08;;;4.20;99.90;;;;;;5048836;28;20120;-45
2021/03/04 10:45:44;;;;;;;56.28;22.35;;;4.20;99.90;;;;;;5049829;28;20021;-44
2021/03/04 10:48:12;;;;;;;53.47;21.70;;;4.10;99.90;;;;;;5050118;28;20096;-45
2021/03/04 10:50:38;;;;;;;55.85;21.52;;;4.10;99.90;;;;;;5049690;28;20052;-45
2021/03/04 10:53:03;;;;;;;54.08;22.33;;;4.10;99.90;;;;;;5050102;28;20502;-45
2021/03/04 10:55:30;;;;;;;53.35;20.90;;;4.10;99.90;;;;;;5048475;28;20433;-45
2021/03/04 10:57:56;;;;;;;59.65;22.75;;;4.10;99.90;;;;;;5050207;28;20025;-45
2021/03/04 11:00:22;;;;;;;52.47;21.10;;;4.10;99.90;;;;;;5050202;28;20498;-44
2021/03/04 11:02:47;;;;;;;55.20;22.55;;;4.10;99.90;;;;;;5049990;28;20394;-46
2021/03/04 11:05:12;;;;;;;52.70;21.45;;;4.10;99.90;;;;;;5048792;28;20025;-46
2021/03/04 11:07:38;;;;;;;52.42;22.83;;;4.10;99.90;;;;;;5049681;28;20563;-44
2021/03/04 11:10:06;;;;;;;62.95;23.23;;;4.20;99.90;;;;;;5049611;28;20120;-44
2021/03/04 11:12:32;;;;;;;43.67;20.13;;;4.10;99.90;;;;;;5048261;28;20102;-45
2021/03/04 11:14:58;;;;;;;57.03;21.42;;;4.20;99.90;;;;;;5049186;28;20087;-44
2021/03/04 11:17:24;;;;;;;48.05;19.33;;;4.10;99.90;;;;;;5048073;28;20020;-44
2021/03/04 11:19:50;;;;;;;60.42;23.63;;;4.10;99.90;;;;;;5049320;28;20502;-44
2021/03/04 11:22:17;;;;;;;55.63;21.27;;;4.00;99.90;;;;;;5049259;28;20036;-44
2021/03/04 11:24:44;;;;;;;53.13;21.55;;;4.00;99.90;;;;;;5049107;28;20017;-45
2021/03/04 11:27:10;;;;;;;54.67;20.48;;;4.00;99.90;;;;;;5047663;28;20100;-44
2021/03/04 11:29:35;;;;;;;54.00;20.00;;;4.00;99.90;;;;;;5047795;28;20573;-45
2021/03/04 11:32:01;;;;;;;55.25;21.90;;;3.90;99.90;;;;;;5049239;28;20040;-44
2021/03/04 11:34:26;;;;;;;58.83;21.77;;;3.90;99.90;;;;;;5049059;28;20537;-45
2021/03/04 11:36:52;;;;;;;51.40;19.75;;;4.00;99.90;;;;;;5048126;28;20036;-45
2021/03/04 11:39:17;;;;;;;52.50;19.80;;;4.00;99.90;;;;;;5049109;28;20116;-45
2021/03/04 11:41:43;;;;;;;57.00;20.20;;;4.10;99.90;;;;;;5049720;28;20025;-44
2021/03/04 11:44:09;;;;;;;53.70;20.85;;;4.00;99.90;;;;;;5049047;28;20024;-44
2021/03/04 11:46:34;;;;;;;54.10;20.23;;;4.10;99.90;;;;;;5048306;28;20025;-44
2021/03/04 11:49:00;;;;;;;45.00;19.63;;;4.20;99.90;;;;;;5048823;28;20031;-44
2021/03/04 11:51:25;;;;;;;51.88;20.42;;;4.20;99.90;;;;;;5048597;28;20071;-45
2021/03/04 11:53:51;;;;;;;50.17;19.92;;;4.20;99.90;;;;;;5048861;28;20487;-45
2021/03/04 11:56:16;;;;;;;53.10;19.92;;;4.20;99.90;;;;;;5048061;28;20045;-44
2021/03/04 11:58:42;;;;;;;50.35;18.73;;;4.30;99.90;;;;;;5048639;28;20627;-45
2021/03/04 12:01:07;;;;;;;49.95;20.88;;;4.20;99.90;;;;;;5048959;28;20517;-45
2021/03/04 12:03:33;;;;;;;58.50;20.63;;;4.20;99.90;;;;;;5048721;28;20378;-44
2021/03/04 12:05:58;;;;;;;48.38;19.58;;;4.20;99.90;;;;;;5047545;28;20287;-44
2021/03/04 12:08:24;;;;;;;59.92;20.83;;;4.20;99.90;;;;;;5047449;28;20422;-45
2021/03/04 12:10:50;;;;;;;61.42;20.42;;;4.10;99.90;;;;;;5049110;28;20025;-45
2021/03/04 12:13:15;;;;;;;56.10;19.42;;;4.10;99.90;;;;;;5048387;28;20032;-48
2021/03/04 12:15:41;;;;;;;48.50;19.40;;;4.10;99.90;;;;;;5048013;28;20059;-45
2021/03/04 12:18:08;;;;;;;48.78;18.70;;;4.10;99.90;;;;;;5047123;28;20496;-45
2021/03/04 12:20:34;;;;;;;48.58;18.90;;;4.00;99.90;;;;;;5048244;28;20436;-47
2021/03/04 12:22:59;;;;;;;47.72;19.83;;;4.00;99.90;;;;;;5047274;28;20054;-45
2021/03/04 12:25:26;;;;;;;47.65;19.20;;;4.00;99.90;;;;;;5056366;28;20032;-46
2021/03/04 12:27:52;;;;;;;55.67;20.95;;;3.90;99.90;;;;;;5068468;28;20033;-45
2021/03/04 12:30:18;;;;;;;46.25;19.05;;;3.90;99.90;;;;;;5068218;28;20040;-45
2021/03/04 12:32:44;;;;;;;53.78;20.77;;;3.90;99.90;;;;;;5068302;28;20088;-44
2021/03/04 12:35:10;;;;;;;48.40;20.02;;;4.00;99.90;;;;;;5067647;28;20111;-45